createdAt,value
2022-08-12T00:00:34.769Z,22.31
2022-08-12T00:03:20.995Z,22.34
2022-08-12T00:06:07.945Z,22.28
2022-08-12T00:08:54.938Z,22.23
2022-08-12T00:11:41.928Z,22.21
2022-08-12T00:14:28.028Z,22.19
2022-08-12T00:17:16.181Z,22.14
2022-08-12T00:20:01.457Z,21.82
2022-08-12T00:22:58.670Z,22.07
2022-08-12T00:26:21.073Z,22.04
2022-08-12T00:29:04.419Z,21.98
2022-08-12T00:31:49.625Z,21.95
2022-08-12T00:34:35.637Z,21.90
2022-08-12T00:37:21.165Z,21.88
2022-08-12T00:40:11.234Z,21.82
2022-08-12T00:42:40.456Z,21.81
2022-08-12T00:45:07.850Z,21.81
2022-08-12T00:47:36.141Z,21.78
2022-08-12T00:50:06.494Z,21.73
2022-08-12T00:52:34.948Z,21.69
2022-08-12T00:55:05.921Z,21.67
2022-08-12T00:57:37.788Z,21.61
2022-08-12T01:00:18.581Z,21.60
2022-08-12T01:02:49.320Z,21.52
2022-08-12T01:05:39.114Z,21.48
2022-08-12T01:08:24.841Z,21.43
2022-08-12T01:11:10.285Z,21.44
2022-08-12T01:13:47.271Z,21.40
2022-08-12T01:16:17.730Z,21.32
2022-08-12T01:18:45.191Z,21.02
2022-08-12T01:21:27.152Z,21.30
2022-08-12T01:24:32.082Z,21.25
2022-08-12T01:27:00.249Z,21.21
2022-08-12T01:29:33.231Z,21.18
2022-08-12T01:32:05.577Z,21.15
2022-08-12T01:34:37.538Z,21.09
2022-08-12T01:37:07.631Z,21.06
2022-08-12T01:40:34.259Z,21.01
2022-08-12T01:42:34.071Z,20.94
2022-08-12T01:45:02.471Z,20.91
2022-08-12T01:47:49.866Z,20.87
2022-08-12T01:50:36.898Z,20.81
2022-08-12T01:53:10.537Z,20.77
2022-08-12T01:55:46.971Z,20.69
2022-08-12T01:58:27.843Z,20.69
2022-08-12T02:00:59.363Z,20.65
2022-08-12T02:04:00.113Z,20.60
2022-08-12T02:06:50.874Z,20.52
2022-08-12T02:09:46.744Z,20.49
2022-08-12T02:12:43.818Z,20.42
2022-08-12T02:15:39.026Z,20.35
2022-08-12T02:18:32.962Z,20.34
2022-08-12T02:21:16.963Z,20.30
2022-08-12T02:23:43.736Z,20.25
2022-08-12T02:26:15.882Z,20.19
2022-08-12T02:28:42.623Z,20.22
2022-08-12T02:31:09.504Z,20.15
2022-08-12T02:33:37.731Z,20.15
2022-08-12T02:36:05.558Z,20.09
2022-08-12T02:38:32.905Z,20.08
2022-08-12T02:41:02.841Z,20.06
2022-08-12T02:43:51.236Z,20.05
2022-08-12T02:46:32.446Z,20.06
2022-08-12T02:49:06.452Z,20.10
2022-08-12T02:51:40.530Z,20.10
2022-08-12T02:54:07.574Z,19.83
2022-08-12T02:56:40.723Z,20.09
2022-08-12T02:59:16.847Z,20.07
2022-08-12T03:01:53.606Z,19.99
2022-08-12T03:04:35.820Z,19.92
2022-08-12T03:07:18.091Z,19.97
2022-08-12T03:10:03.747Z,19.94
2022-08-12T03:12:40.036Z,19.87
2022-08-12T03:15:18.304Z,19.90
2022-08-12T03:18:25.870Z,19.86
2022-08-12T03:20:43.812Z,19.81
2022-08-12T03:23:19.353Z,19.78
2022-08-12T03:26:02.522Z,19.74
2022-08-12T03:28:51.108Z,19.63
2022-08-12T03:31:29.728Z,19.67
2022-08-12T03:34:12.788Z,19.61
2022-08-12T03:36:42.050Z,19.69
2022-08-12T03:39:18.219Z,19.48
2022-08-12T03:41:58.068Z,19.47
2022-08-12T03:45:01.806Z,19.64
2022-08-12T03:47:52.401Z,19.58
2022-08-12T03:50:39.033Z,19.50
2022-08-12T03:53:29.108Z,19.53
2022-08-12T03:56:15.223Z,19.48
2022-08-12T03:59:00.493Z,19.46
2022-08-12T04:01:27.518Z,19.45
2022-08-12T04:03:57.727Z,19.44
2022-08-12T04:06:35.496Z,19.40
2022-08-12T04:09:16.562Z,19.38
2022-08-12T04:12:03.850Z,19.37
2022-08-12T04:14:34.035Z,19.34
2022-08-12T04:17:01.535Z,19.24
2022-08-12T04:19:28.615Z,19.27
2022-08-12T04:22:02.956Z,19.23
2022-08-12T04:24:36.394Z,19.22
2022-08-12T04:27:08.774Z,19.18
2022-08-12T04:30:29.338Z,19.24
2022-08-12T04:32:24.919Z,19.25
2022-08-12T04:34:51.934Z,19.27
2022-08-12T04:37:19.356Z,19.25
2022-08-12T04:39:46.399Z,19.28
2022-08-12T04:42:13.185Z,19.30
2022-08-12T04:44:40.193Z,19.33
2022-08-12T04:47:10.503Z,19.39
2022-08-12T04:49:38.215Z,19.38
2022-08-12T04:52:05.387Z,19.40
2022-08-12T04:54:34.581Z,19.47
2022-08-12T04:57:04.284Z,19.45
2022-08-12T04:59:46.991Z,19.91
2022-08-12T05:02:21.534Z,20.99
2022-08-12T05:04:51.859Z,22.10
2022-08-12T05:07:19.624Z,22.91
2022-08-12T05:09:59.829Z,23.54
2022-08-12T05:12:34.298Z,24.14
2022-08-12T05:15:01.127Z,24.51
2022-08-12T05:17:28.271Z,25.04
2022-08-12T05:19:57.039Z,25.51
2022-08-12T05:22:24.134Z,25.74
2022-08-12T05:24:50.707Z,26.25
2022-08-12T05:27:19.592Z,26.67
2022-08-12T05:30:08.272Z,27.18
2022-08-12T05:32:37.055Z,27.69
2022-08-12T05:35:06.880Z,27.92
2022-08-12T05:37:36.670Z,28.43
2022-08-12T05:40:11.162Z,28.99
2022-08-12T05:42:38.482Z,29.54
2022-08-12T05:45:05.957Z,30.08
2022-08-12T05:47:48.523Z,31.02
2022-08-12T05:50:20.017Z,31.52
2022-08-12T05:52:49.051Z,32.00
2022-08-12T05:55:15.736Z,32.36
2022-08-12T05:57:48.409Z,32.34
2022-08-12T06:00:18.465Z,31.91
2022-08-12T06:02:46.506Z,32.18
2022-08-12T06:05:14.033Z,32.86
2022-08-12T06:08:01.485Z,33.31
2022-08-12T06:10:32.180Z,33.61
2022-08-12T06:13:04.896Z,34.16
2022-08-12T06:15:33.263Z,34.36
2022-08-12T06:18:13.967Z,35.04
2022-08-12T06:20:43.872Z,35.04
2022-08-12T06:23:11.887Z,35.05
2022-08-12T06:25:38.876Z,35.24
2022-08-12T06:28:16.639Z,35.53
2022-08-12T06:30:57.328Z,35.30
2022-08-12T06:34:00.624Z,35.24
2022-08-12T06:36:25.224Z,35.23
2022-08-12T06:38:59.545Z,35.77
2022-08-12T06:42:05.154Z,35.60
2022-08-12T06:44:33.269Z,36.17
2022-08-12T06:47:00.140Z,36.02
2022-08-12T06:49:28.565Z,36.14
2022-08-12T06:51:56.953Z,35.90
2022-08-12T06:54:30.937Z,35.95
2022-08-12T06:57:05.280Z,35.96
2022-08-12T06:59:46.645Z,35.88
2022-08-12T07:02:13.236Z,36.39
2022-08-12T07:04:39.949Z,36.95
2022-08-12T07:07:11.114Z,37.36
2022-08-12T07:10:05.371Z,37.17
2022-08-12T07:12:27.910Z,37.25
2022-08-12T07:14:54.953Z,37.86
2022-08-12T07:17:21.692Z,38.27
2022-08-12T07:19:50.177Z,37.59
2022-08-12T07:22:16.979Z,38.19
2022-08-12T07:25:04.085Z,39.25
2022-08-12T07:27:31.134Z,39.23
2022-08-12T07:30:04.442Z,38.93
2022-08-12T07:32:31.672Z,38.72
2022-08-12T07:34:58.311Z,37.98
2022-08-12T07:37:24.906Z,38.14
2022-08-12T07:39:59.816Z,38.04
2022-08-12T07:42:29.195Z,39.24
2022-08-12T07:44:56.419Z,39.36
2022-08-12T07:47:27.532Z,39.67
2022-08-12T07:50:04.589Z,40.25
2022-08-12T07:52:36.612Z,39.56
2022-08-12T07:55:04.061Z,39.88
2022-08-12T07:57:33.842Z,39.76
2022-08-12T08:00:05.494Z,39.44
2022-08-12T08:02:33.810Z,39.66
2022-08-12T08:05:00.819Z,39.18
2022-08-12T08:07:30.778Z,39.99
2022-08-12T08:09:59.672Z,39.81
2022-08-12T08:12:51.412Z,39.94
2022-08-12T08:15:18.167Z,39.66
2022-08-12T08:17:57.933Z,39.55
2022-08-12T08:20:29.102Z,39.33
2022-08-12T08:22:58.070Z,39.79
2022-08-12T08:25:35.704Z,39.80
2022-08-12T08:28:06.951Z,39.19
2022-08-12T08:30:34.598Z,38.72
2022-08-12T08:33:01.282Z,39.11
2022-08-12T08:35:46.253Z,39.23
2022-08-12T08:38:32.435Z,40.19
2022-08-12T08:42:13.924Z,40.10
2022-08-12T08:44:11.341Z,41.22
2022-08-12T08:46:44.750Z,41.26
2022-08-12T08:49:12.896Z,41.75
2022-08-12T08:51:40.087Z,41.98
2022-08-12T08:54:12.219Z,42.11
2022-08-12T08:56:43.827Z,42.03
2022-08-12T08:59:13.895Z,41.53
2022-08-12T09:01:44.382Z,40.49
2022-08-12T09:05:09.714Z,39.84
2022-08-12T09:07:00.172Z,40.86
2022-08-12T09:09:28.383Z,41.00
2022-08-12T09:12:33.198Z,40.07
2022-08-12T09:15:07.124Z,40.54
2022-08-12T09:17:55.811Z,40.96
2022-08-12T09:20:29.352Z,40.43
2022-08-12T09:23:01.238Z,39.00
2022-08-12T09:25:36.537Z,37.89
2022-08-12T09:28:05.980Z,37.33
2022-08-12T09:30:52.082Z,37.55
2022-08-12T09:34:27.949Z,37.84
2022-08-12T09:36:08.033Z,37.09
2022-08-12T09:38:58.532Z,37.05
2022-08-12T09:42:35.178Z,37.08
2022-08-12T09:44:39.202Z,37.50
2022-08-12T09:47:10.649Z,37.58
2022-08-12T09:49:42.295Z,37.37
2022-08-12T09:52:13.985Z,37.20
2022-08-12T09:54:42.888Z,37.15
2022-08-12T09:58:46.129Z,37.13
2022-08-12T10:00:17.834Z,36.95
2022-08-12T10:03:08.747Z,36.89
2022-08-12T10:06:26.295Z,36.93
2022-08-12T10:08:44.692Z,36.95
2022-08-12T10:12:10.728Z,36.61
2022-08-12T10:14:34.636Z,36.27
2022-08-12T10:17:03.235Z,36.25
2022-08-12T10:19:36.965Z,36.33
2022-08-12T10:22:16.554Z,36.40
2022-08-12T10:25:04.845Z,36.15
2022-08-12T10:28:08.380Z,36.44
2022-08-12T10:30:46.899Z,36.36
2022-08-12T10:33:31.671Z,36.35
2022-08-12T10:35:59.854Z,36.24
2022-08-12T10:38:38.065Z,35.85
2022-08-12T10:41:57.730Z,35.84
2022-08-12T10:44:17.329Z,35.88
2022-08-12T10:46:49.551Z,35.90
2022-08-12T10:50:02.724Z,35.93
2022-08-12T10:52:33.901Z,35.75
2022-08-12T10:54:58.817Z,36.39
2022-08-12T10:58:13.145Z,36.45
2022-08-12T11:00:33.700Z,36.46
2022-08-12T11:04:35.359Z,36.15
2022-08-12T11:07:07.544Z,36.01
2022-08-12T11:08:43.036Z,36.09
2022-08-12T11:12:08.390Z,36.22
2022-08-12T11:14:13.014Z,36.18
2022-08-12T11:17:33.750Z,36.30
2022-08-12T11:19:48.866Z,36.22
2022-08-12T11:22:15.512Z,36.15
2022-08-12T11:24:51.731Z,36.30
2022-08-12T11:27:20.431Z,36.26
2022-08-12T11:30:02.330Z,36.30
2022-08-12T11:32:39.205Z,35.82
2022-08-12T11:35:06.837Z,36.02
2022-08-12T11:37:48.397Z,35.79
2022-08-12T11:40:22.299Z,35.51
2022-08-12T11:42:50.062Z,35.06
2022-08-12T11:45:19.918Z,35.20
2022-08-12T11:47:46.927Z,35.48
2022-08-12T11:50:20.257Z,35.58
2022-08-12T11:52:55.457Z,36.06
2022-08-12T11:55:24.673Z,36.05
2022-08-12T11:58:47.772Z,35.77
2022-08-12T12:03:45.806Z,35.51
2022-08-12T12:06:16.360Z,35.46
2022-08-12T12:08:50.442Z,35.79
2022-08-12T12:11:17.689Z,35.48
2022-08-12T12:14:08.461Z,35.30
2022-08-12T12:16:31.277Z,35.50
2022-08-12T12:19:00.164Z,35.86
2022-08-12T12:21:48.797Z,35.96
2022-08-12T12:24:13.397Z,35.82
2022-08-12T12:26:47.670Z,35.73
2022-08-12T12:30:18.574Z,35.55
2022-08-12T12:32:15.059Z,35.32
2022-08-12T12:35:44.341Z,35.25
2022-08-12T12:38:03.718Z,35.66
2022-08-12T12:40:15.615Z,35.65
2022-08-12T12:42:57.922Z,35.96
2022-08-12T12:45:32.375Z,36.33
2022-08-12T12:48:04.057Z,36.16
2022-08-12T12:50:45.393Z,35.48
2022-08-12T12:54:05.880Z,35.35
2022-08-12T12:56:15.785Z,35.29
2022-08-12T12:58:43.614Z,35.37
2022-08-12T13:01:27.845Z,35.64
2022-08-12T13:04:02.035Z,35.42
2022-08-12T13:06:30.291Z,35.27
2022-08-12T13:09:03.619Z,35.20
2022-08-12T13:11:40.792Z,35.24
2022-08-12T13:14:28.100Z,35.25
2022-08-12T13:17:02.760Z,34.96
2022-08-12T13:19:45.204Z,34.71
2022-08-12T13:22:21.327Z,34.63
2022-08-12T13:24:55.609Z,34.76
2022-08-12T13:27:35.180Z,34.82
2022-08-12T13:30:17.658Z,34.81
2022-08-12T13:32:58.699Z,34.64
2022-08-12T13:36:02.888Z,34.68
2022-08-12T13:38:26.616Z,34.83
2022-08-12T13:41:01.528Z,34.79
2022-08-12T13:43:40.805Z,34.72
2022-08-12T13:46:12.444Z,34.69
2022-08-12T13:48:45.038Z,34.73
2022-08-12T13:51:13.172Z,34.90
2022-08-12T13:53:57.700Z,34.94
2022-08-12T13:56:34.692Z,34.47
2022-08-12T13:59:07.713Z,34.81
2022-08-12T14:01:40.043Z,34.79
2022-08-12T14:04:11.464Z,34.64
2022-08-12T14:06:39.432Z,34.56
2022-08-12T14:09:17.551Z,34.45
2022-08-12T14:11:58.901Z,34.27
2022-08-12T14:14:35.724Z,34.38
2022-08-12T14:17:10.644Z,34.36
2022-08-12T14:19:48.818Z,34.46
2022-08-12T14:22:26.056Z,34.28
2022-08-12T14:25:05.105Z,34.05
2022-08-12T14:28:04.565Z,34.29
2022-08-12T14:30:24.139Z,34.31
2022-08-12T14:32:55.762Z,34.36
2022-08-12T14:35:24.432Z,34.35
2022-08-12T14:37:57.572Z,34.22
2022-08-12T14:40:29.776Z,34.15
2022-08-12T14:42:58.289Z,34.10
2022-08-12T14:45:45.464Z,34.10
2022-08-12T14:48:15.072Z,34.14
2022-08-12T14:51:02.563Z,34.13
2022-08-12T14:59:57.446Z,34.15
2022-08-12T15:02:17.166Z,34.09
2022-08-12T15:04:45.360Z,34.10
2022-08-12T15:07:34.371Z,34.03
2022-08-12T15:10:02.826Z,34.02
2022-08-12T15:12:31.939Z,34.01
2022-08-12T15:14:59.859Z,34.09
2022-08-12T15:17:47.710Z,34.20
2022-08-12T15:20:40.375Z,34.04
2022-08-12T15:23:17.832Z,33.94
2022-08-12T15:25:49.868Z,34.02
2022-08-12T15:28:33.299Z,33.92
2022-08-12T15:31:00.859Z,33.94
2022-08-12T15:33:45.364Z,33.91
2022-08-12T15:36:14.421Z,33.75
2022-08-12T15:38:50.441Z,33.72
2022-08-12T15:41:22.218Z,33.75
2022-08-12T15:44:16.334Z,33.78
2022-08-12T15:46:37.012Z,33.86
2022-08-12T15:49:04.046Z,33.93
2022-08-12T15:51:58.506Z,33.92
2022-08-12T15:54:33.803Z,33.94
2022-08-12T15:57:07.935Z,33.80
2022-08-12T16:00:02.301Z,33.76
2022-08-12T16:02:22.890Z,33.77
2022-08-12T16:04:53.491Z,33.83
2022-08-12T16:07:29.706Z,33.86
2022-08-12T16:10:08.149Z,33.74
2022-08-12T16:12:54.617Z,33.65
2022-08-12T16:15:23.407Z,33.66
2022-08-12T16:18:19.800Z,33.62
2022-08-12T16:20:40.492Z,33.56
2022-08-12T16:23:26.860Z,33.47
2022-08-12T16:26:06.024Z,33.42
2022-08-12T16:28:37.410Z,33.19
2022-08-12T16:31:06.407Z,33.29
2022-08-12T16:33:59.468Z,33.49
2022-08-12T16:36:25.814Z,33.46
2022-08-12T16:38:53.079Z,33.41
2022-08-12T16:41:19.747Z,33.32
2022-08-12T16:43:46.751Z,33.29
2022-08-12T16:46:31.997Z,33.27
2022-08-12T16:49:04.220Z,33.20
2022-08-12T16:51:41.792Z,33.12
2022-08-12T16:54:14.101Z,33.11
2022-08-12T16:56:54.626Z,32.95
2022-08-12T16:59:31.176Z,33.09
2022-08-12T17:02:31.205Z,33.06
2022-08-12T17:05:06.543Z,32.93
2022-08-12T17:07:38.339Z,32.91
2022-08-12T17:10:12.832Z,32.96
2022-08-12T17:12:39.629Z,33.07
2022-08-12T17:15:21.463Z,33.15
2022-08-12T17:18:15.291Z,33.12
2022-08-12T17:20:47.068Z,33.07
2022-08-12T17:23:19.401Z,33.01
2022-08-12T17:25:50.481Z,32.90
2022-08-12T17:28:21.361Z,32.75
2022-08-12T17:30:57.472Z,32.65
2022-08-12T17:33:27.745Z,32.57
2022-08-12T17:36:02.973Z,32.40
2022-08-12T17:38:29.540Z,32.38
2022-08-12T17:40:57.400Z,32.34
2022-08-12T17:43:57.425Z,32.29
2022-08-12T17:46:23.950Z,32.23
2022-08-12T17:49:00.609Z,32.17
2022-08-12T17:51:49.977Z,32.07
2022-08-12T17:54:17.662Z,32.00
2022-08-12T17:56:47.180Z,31.93
2022-08-12T17:59:27.397Z,31.80
2022-08-12T18:02:08.160Z,31.70
2022-08-12T18:04:37.883Z,31.60
2022-08-12T18:07:28.000Z,31.51
2022-08-12T18:09:56.396Z,31.47
2022-08-12T18:12:42.770Z,31.37
2022-08-12T18:15:26.815Z,31.23
2022-08-12T18:18:05.978Z,31.04
2022-08-12T18:20:46.598Z,30.98
2022-08-12T18:23:13.234Z,30.95
2022-08-12T18:26:13.260Z,30.82
2022-08-12T18:28:44.572Z,30.71
2022-08-12T18:31:18.369Z,30.59
2022-08-12T18:33:46.606Z,30.51
2022-08-12T18:36:22.695Z,30.37
2022-08-12T18:38:56.181Z,30.31
2022-08-12T18:41:29.070Z,29.92
2022-08-12T18:44:09.796Z,30.05
2022-08-12T18:46:59.687Z,29.97
2022-08-12T18:49:39.494Z,29.87
2022-08-12T18:52:11.448Z,29.74
2022-08-12T18:54:48.712Z,29.59
2022-08-12T18:58:07.654Z,29.32
2022-08-12T19:00:09.946Z,29.38
2022-08-12T19:02:39.893Z,29.31
2022-08-12T19:05:11.727Z,29.22
2022-08-12T19:07:50.070Z,29.11
2022-08-12T19:10:28.419Z,28.96
2022-08-12T19:13:21.268Z,28.71
2022-08-12T19:15:50.142Z,28.75
2022-08-12T19:18:17.569Z,28.65
2022-08-12T19:20:51.101Z,28.56
2022-08-12T19:23:21.091Z,28.47
2022-08-12T19:26:01.167Z,28.38
2022-08-12T19:28:34.556Z,28.29
2022-08-12T19:31:56.775Z,28.19
2022-08-12T19:35:24.149Z,28.05
2022-08-12T19:37:38.713Z,27.95
2022-08-12T19:40:20.370Z,27.44
2022-08-12T19:43:01.745Z,27.74
2022-08-12T19:45:43.906Z,27.53
2022-08-12T19:48:18.975Z,27.52
2022-08-12T19:50:50.228Z,27.50
2022-08-12T19:53:19.871Z,27.40
2022-08-12T19:55:51.871Z,27.31
2022-08-12T19:58:20.382Z,27.21
2022-08-12T20:00:52.686Z,27.17
2022-08-12T20:03:38.253Z,27.09
2022-08-12T20:06:15.533Z,26.95
2022-08-12T20:08:56.090Z,26.90
2022-08-12T20:12:14.724Z,26.87
2022-08-12T20:14:19.205Z,26.74
2022-08-12T20:16:52.325Z,26.71
2022-08-12T20:19:23.373Z,26.58
2022-08-12T20:21:50.730Z,26.40
2022-08-12T20:24:19.144Z,26.43
2022-08-12T20:26:49.087Z,26.45
2022-08-12T20:29:16.662Z,26.39
2022-08-12T20:31:44.334Z,26.33
2022-08-12T20:34:12.077Z,26.25
2022-08-12T20:36:44.734Z,26.21
2022-08-12T20:39:33.857Z,26.16
2022-08-12T20:42:09.580Z,26.10
2022-08-12T20:44:41.352Z,26.05
2022-08-12T20:47:19.523Z,25.99
2022-08-12T20:49:55.885Z,25.91
2022-08-12T20:52:29.970Z,25.85
2022-08-12T20:55:15.825Z,25.77
2022-08-12T20:58:02.167Z,25.64
2022-08-12T21:00:33.582Z,25.64
2022-08-12T21:03:20.207Z,25.59
2022-08-12T21:06:12.032Z,25.52
2022-08-12T21:08:41.247Z,25.46
2022-08-12T21:11:10.342Z,25.42
2022-08-12T21:13:41.818Z,25.37
2022-08-12T21:16:12.263Z,25.33
2022-08-12T21:18:39.621Z,25.29
2022-08-12T21:21:23.796Z,25.23
2022-08-12T21:23:51.360Z,25.17
2022-08-12T21:26:26.348Z,25.11
2022-08-12T21:29:01.305Z,25.06
2022-08-12T21:32:36.106Z,24.98
2022-08-12T21:34:26.008Z,24.91
2022-08-12T21:36:53.038Z,24.85
2022-08-12T21:39:27.878Z,24.77
2022-08-12T21:42:07.424Z,24.63
2022-08-12T21:45:45.503Z,24.57
2022-08-12T21:47:28.836Z,24.53
2022-08-12T21:50:04.052Z,24.49
2022-08-12T21:52:40.972Z,24.48
2022-08-12T21:55:19.032Z,24.44
2022-08-12T21:57:53.069Z,24.38
2022-08-12T22:00:31.879Z,24.40
2022-08-12T22:03:17.977Z,24.36
2022-08-12T22:06:31.198Z,24.18
2022-08-12T22:09:17.142Z,24.02
2022-08-12T22:11:56.533Z,24.18
2022-08-12T22:14:29.046Z,24.11
2022-08-12T22:16:57.273Z,24.12
2022-08-12T22:19:24.510Z,24.08
2022-08-12T22:21:54.951Z,24.05
2022-08-12T22:24:26.716Z,23.80
2022-08-12T22:26:56.284Z,23.93
2022-08-12T22:29:42.970Z,23.88
2022-08-12T22:32:11.271Z,23.80
2022-08-12T22:34:39.194Z,23.75
2022-08-12T22:37:11.191Z,23.72
2022-08-12T22:39:46.500Z,23.70
2022-08-12T22:42:34.319Z,23.66
2022-08-12T22:45:23.390Z,23.58
2022-08-12T22:47:55.791Z,23.54
2022-08-12T22:50:29.624Z,23.32
2022-08-12T22:53:25.981Z,23.46
2022-08-12T22:56:06.844Z,23.34
2022-08-12T22:58:40.471Z,23.34
2022-08-12T23:01:10.883Z,23.27
2022-08-12T23:03:50.981Z,23.29
2022-08-12T23:06:25.387Z,23.25
2022-08-12T23:08:55.011Z,23.18
2022-08-12T23:11:23.689Z,23.16
2022-08-12T23:14:01.947Z,22.98
2022-08-12T23:16:34.093Z,23.08
2022-08-12T23:19:10.482Z,23.02
2022-08-12T23:22:03.919Z,22.96
2022-08-12T23:24:35.665Z,22.91
2022-08-12T23:27:21.614Z,22.84
2022-08-12T23:30:17.865Z,22.81
2022-08-12T23:32:39.574Z,22.75
2022-08-12T23:35:07.233Z,22.73
2022-08-12T23:37:46.467Z,22.61
2022-08-12T23:40:24.213Z,22.60
2022-08-12T23:42:54.328Z,22.53
2022-08-12T23:45:31.692Z,22.53
2022-08-12T23:48:01.857Z,22.49
2022-08-12T23:50:33.493Z,22.37
2022-08-12T23:53:05.773Z,22.34
2022-08-12T23:55:40.928Z,22.33
2022-08-12T23:58:21.221Z,22.28
